Airfield :
LOGIN :

Register | Disclaimer

   EN    FR    IT 

 










Legend :    VFR   Marginal VFR   IFR   Intensive IFR   Very Intensive IFR
Visi :
Ceiling :
>= 8 km
>= 3000ft
5 to 8 km
1000 to 3000 ft
1500m to 5 km
500 to 1000 ft
800 to 1500m
200 to 500 ft
< 800m
< 200 ft
Symbols :   Thunderstorms  Fog  Heavy snow  Heavy precipitations  Wind > 20 kt
SIGMETs :     Misc.  Thunderstorms  Icing  Turbulence  Mountain Waves  Volcanic Ashes






- Airport Elevation : 219 ft
- IATA code : DNR


LFRD - Dinard

CURRENT METAR :
  • 041130Z AUTO 34012KT 300V020 9999 BKN029 18/11 Q1025 NOSIG

EXPIRED METARs :
  • 041100Z AUTO 34011KT 300V360 9999 BKN029 17/10 Q1025 NOSIG
  • 041030Z AUTO 32011KT 290V350 9999 BKN027 18/11 Q1025 NOSIG
  • 041000Z AUTO 33010KT 300V360 9999 BKN027 17/11 Q1024 NOSIG
  • 040930Z AUTO 33009KT 300V360 9999 BKN024 BKN029 17/10 Q1024 NOSIG
  • 040900Z AUTO 34008KT 300V030 9999 BKN024 OVC029 17/11 Q1024 NOSIG

TAF TAF LFRD
Valid from the 04 at 12:00 until the 05 at 12:00 UTC


041100Z 0412/0512 33010KT 9999 BKN025
TEMPO 0418/0506 BKN010
ATIS : +33 2 99 16 81 50



MET'MAP, your aeronautical weather chart ! - Copyright ORBIFLY December 2007 - Disclaimer

ORBIFLY MET'MAP TEAM :

Programming & Development : Alexandra Zaïnal
Original concept : Baudouin d'Aumeries
Technical & hardware support : Manuel Goepfert
Assistance : Marc-Olivier Méhu




SOURCES & CREDITS :

   NOAA